sensor_id;sensor_type;location;lat;lon;timestamp;P1;durP1;ratioP1;P2;durP2;ratioP2
41921;SDS011;27609;51.002;5.354;2024-01-15T00:02:17;43.75;;;16.63;;
41921;SDS011;27609;51.002;5.354;2024-01-15T00:04:43;45.38;;;16.00;;
41921;SDS011;27609;51.002;5.354;2024-01-15T00:07:09;43.28;;;15.93;;
41921;SDS011;27609;51.002;5.354;2024-01-15T00:09:35;36.92;;;16.70;;
41921;SDS011;27609;51.002;5.354;2024-01-15T00:12:01;43.65;;;14.32;;
41921;SDS011;27609;51.002;5.354;2024-01-15T00:14:27;47.50;;;15.80;;
41921;SDS011;27609;51.002;5.354;2024-01-15T00:16:53;48.38;;;14.70;;
41921;SDS011;27609;51.002;5.354;2024-01-15T00:19:23;49.47;;;16.02;;
41921;SDS011;27609;51.002;5.354;2024-01-15T00:21:50;45.53;;;14.80;;
41921;SDS011;27609;51.002;5.354;2024-01-15T00:24:15;44.75;;;15.07;;
41921;SDS011;27609;51.002;5.354;2024-01-15T00:26:41;43.60;;;15.60;;
41921;SDS011;27609;51.002;5.354;2024-01-15T00:29:07;43.20;;;14.13;;
41921;SDS011;27609;51.002;5.354;2024-01-15T00:31:33;40.47;;;15.60;;
41921;SDS011;27609;51.002;5.354;2024-01-15T00:33:59;40.42;;;15.05;;
41921;SDS011;27609;51.002;5.354;2024-01-15T00:36:25;45.80;;;14.45;;
41921;SDS011;27609;51.002;5.354;2024-01-15T00:38:51;42.08;;;14.02;;
41921;SDS011;27609;51.002;5.354;2024-01-15T00:41:17;48.00;;;16.25;;
41921;SDS011;27609;51.002;5.354;2024-01-15T00:43:44;48.42;;;15.32;;
41921;SDS011;27609;51.002;5.354;2024-01-15T00:46:10;41.58;;;14.27;;
41921;SDS011;27609;51.002;5.354;2024-01-15T00:48:36;40.00;;;14.80;;
41921;SDS011;27609;51.002;5.354;2024-01-15T00:51:03;39.80;;;15.18;;
41921;SDS011;27609;51.002;5.354;2024-01-15T00:53:29;36.22;;;14.70;;
41921;SDS011;27609;51.002;5.354;2024-01-15T00:55:56;51.35;;;15.02;;
41921;SDS011;27609;51.002;5.354;2024-01-15T00:58:21;42.85;;;17.92;;
41921;SDS011;27609;51.002;5.354;2024-01-15T01:00:47;43.08;;;16.00;;
41921;SDS011;27609;51.002;5.354;2024-01-15T01:03:13;40.95;;;15.50;;
41921;SDS011;27609;51.002;5.354;2024-01-15T01:05:38;47.55;;;16.45;;
41921;SDS011;27609;51.002;5.354;2024-01-15T01:08:04;51.95;;;16.70;;
41921;SDS011;27609;51.002;5.354;2024-01-15T01:10:30;55.85;;;17.95;;
41921;SDS011;27609;51.002;5.354;2024-01-15T01:12:56;47.50;;;17.67;;
41921;SDS011;27609;51.002;5.354;2024-01-15T01:15:22;45.67;;;16.08;;
41921;SDS011;27609;51.002;5.354;2024-01-15T01:17:47;47.22;;;16.67;;
41921;SDS011;27609;51.002;5.354;2024-01-15T01:20:13;39.72;;;16.90;;
41921;SDS011;27609;51.002;5.354;2024-01-15T01:22:40;51.95;;;17.02;;
41921;SDS011;27609;51.002;5.354;2024-01-15T01:25:06;49.00;;;18.30;;
41921;SDS011;27609;51.002;5.354;2024-01-15T01:27:32;53.42;;;17.33;;
41921;SDS011;27609;51.002;5.354;2024-01-15T01:29:58;44.22;;;15.68;;
41921;SDS011;27609;51.002;5.354;2024-01-15T01:32:23;52.25;;;16.10;;
41921;SDS011;27609;51.002;5.354;2024-01-15T01:34:49;49.60;;;18.45;;
41921;SDS011;27609;51.002;5.354;2024-01-15T01:37:15;57.25;;;17.65;;
41921;SDS011;27609;51.002;5.354;2024-01-15T01:39:41;51.45;;;17.65;;
41921;SDS011;27609;51.002;5.354;2024-01-15T01:42:08;45.20;;;15.80;;
41921;SDS011;27609;51.002;5.354;2024-01-15T01:44:33;44.70;;;15.60;;
41921;SDS011;27609;51.002;5.354;2024-01-15T01:46:59;48.75;;;17.48;;
41921;SDS011;27609;51.002;5.354;2024-01-15T01:49:26;54.88;;;17.50;;
41921;SDS011;27609;51.002;5.354;2024-01-15T01:51:53;42.28;;;16.15;;
41921;SDS011;27609;51.002;5.354;2024-01-15T01:54:22;49.90;;;18.37;;
41921;SDS011;27609;51.002;5.354;2024-01-15T01:56:49;59.78;;;18.13;;
41921;SDS011;27609;51.002;5.354;2024-01-15T01:59:16;51.78;;;17.13;;
41921;SDS011;27609;51.002;5.354;2024-01-15T02:01:42;48.97;;;15.77;;
41921;SDS011;27609;51.002;5.354;2024-01-15T02:04:09;51.97;;;16.63;;
41921;SDS011;27609;51.002;5.354;2024-01-15T02:06:36;50.35;;;17.45;;
41921;SDS011;27609;51.002;5.354;2024-01-15T02:09:02;42.25;;;16.10;;
41921;SDS011;27609;51.002;5.354;2024-01-15T02:11:28;45.70;;;15.70;;
41921;SDS011;27609;51.002;5.354;2024-01-15T02:13:54;42.05;;;16.83;;
41921;SDS011;27609;51.002;5.354;2024-01-15T02:16:20;44.67;;;16.60;;
41921;SDS011;27609;51.002;5.354;2024-01-15T02:18:46;49.20;;;17.23;;
41921;SDS011;27609;51.002;5.354;2024-01-15T02:21:12;48.15;;;16.48;;
41921;SDS011;27609;51.002;5.354;2024-01-15T02:23:38;36.10;;;14.98;;
41921;SDS011;27609;51.002;5.354;2024-01-15T02:26:04;40.03;;;14.68;;
41921;SDS011;27609;51.002;5.354;2024-01-15T02:28:30;42.85;;;16.33;;
41921;SDS011;27609;51.002;5.354;2024-01-15T02:30:57;31.55;;;13.95;;
41921;SDS011;27609;51.002;5.354;2024-01-15T02:33:23;33.70;;;13.43;;
41921;SDS011;27609;51.002;5.354;2024-01-15T02:35:48;43.10;;;13.50;;
41921;SDS011;27609;51.002;5.354;2024-01-15T02:38:17;36.53;;;13.15;;
41921;SDS011;27609;51.002;5.354;2024-01-15T02:40:47;32.97;;;13.85;;
41921;SDS011;27609;51.002;5.354;2024-01-15T02:43:12;30.80;;;12.80;;
41921;SDS011;27609;51.002;5.354;2024-01-15T02:45:39;42.65;;;14.95;;
41921;SDS011;27609;51.002;5.354;2024-01-15T02:48:05;32.30;;;13.75;;
41921;SDS011;27609;51.002;5.354;2024-01-15T02:50:31;37.08;;;13.25;;
41921;SDS011;27609;51.002;5.354;2024-01-15T02:52:56;33.20;;;14.07;;
41921;SDS011;27609;51.002;5.354;2024-01-15T02:55:22;42.80;;;14.65;;
41921;SDS011;27609;51.002;5.354;2024-01-15T02:57:48;30.38;;;13.63;;
41921;SDS011;27609;51.002;5.354;2024-01-15T03:00:13;35.55;;;13.38;;
41921;SDS011;27609;51.002;5.354;2024-01-15T03:02:40;28.98;;;13.23;;
41921;SDS011;27609;51.002;5.354;2024-01-15T03:05:08;39.53;;;13.80;;
41921;SDS011;27609;51.002;5.354;2024-01-15T03:07:34;30.50;;;13.05;;
41921;SDS011;27609;51.002;5.354;2024-01-15T03:10:00;32.38;;;14.63;;
41921;SDS011;27609;51.002;5.354;2024-01-15T03:12:26;37.10;;;13.43;;
41921;SDS011;27609;51.002;5.354;2024-01-15T03:14:51;32.22;;;13.88;;
41921;SDS011;27609;51.002;5.354;2024-01-15T03:17:17;33.65;;;14.95;;
41921;SDS011;27609;51.002;5.354;2024-01-15T03:19:43;36.53;;;14.50;;
41921;SDS011;27609;51.002;5.354;2024-01-15T03:22:09;26.58;;;12.48;;
41921;SDS011;27609;51.002;5.354;2024-01-15T03:24:35;28.35;;;11.55;;
41921;SDS011;27609;51.002;5.354;2024-01-15T03:27:01;35.70;;;13.50;;
41921;SDS011;27609;51.002;5.354;2024-01-15T03:29:27;32.88;;;12.70;;
41921;SDS011;27609;51.002;5.354;2024-01-15T03:31:53;37.00;;;15.18;;
41921;SDS011;27609;51.002;5.354;2024-01-15T03:34:19;32.78;;;15.48;;
41921;SDS011;27609;51.002;5.354;2024-01-15T03:36:44;33.83;;;12.90;;
41921;SDS011;27609;51.002;5.354;2024-01-15T03:39:10;28.55;;;12.30;;
41921;SDS011;27609;51.002;5.354;2024-01-15T03:41:36;36.97;;;14.80;;
41921;SDS011;27609;51.002;5.354;2024-01-15T03:44:01;35.83;;;15.75;;
41921;SDS011;27609;51.002;5.354;2024-01-15T03:46:27;43.80;;;17.67;;
41921;SDS011;27609;51.002;5.354;2024-01-15T03:48:53;44.72;;;20.08;;
41921;SDS011;27609;51.002;5.354;2024-01-15T03:51:19;67.35;;;31.35;;
41921;SDS011;27609;51.002;5.354;2024-01-15T03:53:45;57.03;;;26.42;;
41921;SDS011;27609;51.002;5.354;2024-01-15T03:56:11;44.30;;;19.30;;
41921;SDS011;27609;51.002;5.354;2024-01-15T03:58:37;42.65;;;17.13;;
41921;SDS011;27609;51.002;5.354;2024-01-15T04:01:03;56.97;;;23.38;;
41921;SDS011;27609;51.002;5.354;2024-01-15T04:03:32;48.95;;;21.63;;
41921;SDS011;27609;51.002;5.354;2024-01-15T04:05:58;68.22;;;25.52;;
41921;SDS011;27609;51.002;5.354;2024-01-15T04:08:23;50.30;;;19.25;;
41921;SDS011;27609;51.002;5.354;2024-01-15T04:10:49;28.25;;;13.45;;
41921;SDS011;27609;51.002;5.354;2024-01-15T04:13:15;34.35;;;15.43;;
41921;SDS011;27609;51.002;5.354;2024-01-15T04:15:41;31.27;;;12.73;;
41921;SDS011;27609;51.002;5.354;2024-01-15T04:18:07;29.80;;;13.40;;
41921;SDS011;27609;51.002;5.354;2024-01-15T04:20:32;23.80;;;10.50;;
41921;SDS011;27609;51.002;5.354;2024-01-15T04:22:58;31.58;;;11.75;;
41921;SDS011;27609;51.002;5.354;2024-01-15T04:25:24;31.00;;;16.73;;
41921;SDS011;27609;51.002;5.354;2024-01-15T04:27:49;25.48;;;10.90;;
41921;SDS011;27609;51.002;5.354;2024-01-15T04:30:15;21.30;;;9.18;;
41921;SDS011;27609;51.002;5.354;2024-01-15T04:32:41;21.58;;;10.38;;
41921;SDS011;27609;51.002;5.354;2024-01-15T04:35:07;20.17;;;9.55;;
41921;SDS011;27609;51.002;5.354;2024-01-15T04:37:32;20.80;;;9.25;;
41921;SDS011;27609;51.002;5.354;2024-01-15T04:39:58;23.35;;;9.52;;
41921;SDS011;27609;51.002;5.354;2024-01-15T04:42:24;17.00;;;8.25;;
41921;SDS011;27609;51.002;5.354;2024-01-15T04:44:49;21.13;;;9.25;;
41921;SDS011;27609;51.002;5.354;2024-01-15T04:47:15;18.60;;;8.73;;
41921;SDS011;27609;51.002;5.354;2024-01-15T04:49:41;16.10;;;9.88;;
41921;SDS011;27609;51.002;5.354;2024-01-15T04:52:07;18.70;;;8.80;;
41921;SDS011;27609;51.002;5.354;2024-01-15T04:54:35;21.52;;;9.77;;
41921;SDS011;27609;51.002;5.354;2024-01-15T04:57:01;22.10;;;10.40;;
41921;SDS011;27609;51.002;5.354;2024-01-15T04:59:27;20.08;;;10.80;;
41921;SDS011;27609;51.002;5.354;2024-01-15T05:01:53;24.92;;;10.20;;
41921;SDS011;27609;51.002;5.354;2024-01-15T05:04:20;25.63;;;12.05;;
41921;SDS011;27609;51.002;5.354;2024-01-15T05:06:45;19.25;;;11.50;;
41921;SDS011;27609;51.002;5.354;2024-01-15T05:09:11;26.88;;;10.13;;
41921;SDS011;27609;51.002;5.354;2024-01-15T05:11:38;26.45;;;12.23;;
41921;SDS011;27609;51.002;5.354;2024-01-15T05:14:04;22.33;;;10.27;;
41921;SDS011;27609;51.002;5.354;2024-01-15T05:16:30;19.70;;;10.23;;
41921;SDS011;27609;51.002;5.354;2024-01-15T05:18:56;20.02;;;9.75;;
41921;SDS011;27609;51.002;5.354;2024-01-15T05:21:21;16.65;;;9.45;;
41921;SDS011;27609;51.002;5.354;2024-01-15T05:23:47;22.15;;;11.13;;
41921;SDS011;27609;51.002;5.354;2024-01-15T05:26:13;23.35;;;10.63;;
41921;SDS011;27609;51.002;5.354;2024-01-15T05:28:40;22.67;;;10.50;;
41921;SDS011;27609;51.002;5.354;2024-01-15T05:31:07;28.98;;;11.65;;
41921;SDS011;27609;51.002;5.354;2024-01-15T05:33:34;23.70;;;11.52;;
41921;SDS011;27609;51.002;5.354;2024-01-15T05:35:59;27.38;;;12.68;;
41921;SDS011;27609;51.002;5.354;2024-01-15T05:38:25;30.75;;;15.00;;
41921;SDS011;27609;51.002;5.354;2024-01-15T05:40:51;32.33;;;13.38;;
41921;SDS011;27609;51.002;5.354;2024-01-15T05:43:16;32.78;;;13.80;;
41921;SDS011;27609;51.002;5.354;2024-01-15T05:45:43;34.10;;;15.02;;
41921;SDS011;27609;51.002;5.354;2024-01-15T05:48:09;41.97;;;15.25;;
41921;SDS011;27609;51.002;5.354;2024-01-15T05:50:35;42.75;;;16.02;;
41921;SDS011;27609;51.002;5.354;2024-01-15T05:53:01;35.88;;;14.35;;
41921;SDS011;27609;51.002;5.354;2024-01-15T05:55:27;32.97;;;13.57;;
41921;SDS011;27609;51.002;5.354;2024-01-15T05:57:53;33.33;;;14.48;;
41921;SDS011;27609;51.002;5.354;2024-01-15T06:00:19;36.40;;;14.05;;
41921;SDS011;27609;51.002;5.354;2024-01-15T06:02:45;31.85;;;14.20;;
41921;SDS011;27609;51.002;5.354;2024-01-15T06:05:10;35.88;;;15.95;;
41921;SDS011;27609;51.002;5.354;2024-01-15T06:07:36;43.40;;;16.00;;
41921;SDS011;27609;51.002;5.354;2024-01-15T06:10:02;41.95;;;13.98;;
41921;SDS011;27609;51.002;5.354;2024-01-15T06:12:29;35.90;;;14.80;;
41921;SDS011;27609;51.002;5.354;2024-01-15T06:14:56;36.90;;;13.88;;
41921;SDS011;27609;51.002;5.354;2024-01-15T06:17:21;32.88;;;13.88;;
41921;SDS011;27609;51.002;5.354;2024-01-15T06:19:47;31.50;;;15.10;;
41921;SDS011;27609;51.002;5.354;2024-01-15T06:22:13;42.58;;;16.35;;
41921;SDS011;27609;51.002;5.354;2024-01-15T06:24:39;37.50;;;15.45;;
41921;SDS011;27609;51.002;5.354;2024-01-15T06:27:04;33.10;;;14.95;;
41921;SDS011;27609;51.002;5.354;2024-01-15T06:29:30;40.58;;;15.98;;
41921;SDS011;27609;51.002;5.354;2024-01-15T06:31:57;43.05;;;15.15;;
41921;SDS011;27609;51.002;5.354;2024-01-15T06:34:23;39.25;;;15.45;;
41921;SDS011;27609;51.002;5.354;2024-01-15T06:36:48;31.65;;;14.52;;
41921;SDS011;27609;51.002;5.354;2024-01-15T06:39:14;39.50;;;14.35;;
41921;SDS011;27609;51.002;5.354;2024-01-15T06:41:40;37.47;;;15.45;;
41921;SDS011;27609;51.002;5.354;2024-01-15T06:44:09;32.40;;;14.60;;
41921;SDS011;27609;51.002;5.354;2024-01-15T06:46:41;55.65;;;18.17;;
41921;SDS011;27609;51.002;5.354;2024-01-15T06:49:08;36.08;;;14.73;;
41921;SDS011;27609;51.002;5.354;2024-01-15T06:51:35;29.10;;;13.32;;
41921;SDS011;27609;51.002;5.354;2024-01-15T06:54:01;32.00;;;14.25;;
41921;SDS011;27609;51.002;5.354;2024-01-15T06:56:27;33.63;;;13.40;;
41921;SDS011;27609;51.002;5.354;2024-01-15T06:58:53;34.17;;;13.57;;
41921;SDS011;27609;51.002;5.354;2024-01-15T07:01:18;30.17;;;13.15;;
41921;SDS011;27609;51.002;5.354;2024-01-15T07:03:44;29.83;;;14.23;;
41921;SDS011;27609;51.002;5.354;2024-01-15T07:06:10;25.52;;;12.00;;
41921;SDS011;27609;51.002;5.354;2024-01-15T07:08:36;27.80;;;12.75;;
41921;SDS011;27609;51.002;5.354;2024-01-15T07:11:03;27.65;;;12.70;;
41921;SDS011;27609;51.002;5.354;2024-01-15T07:13:30;29.33;;;11.68;;
41921;SDS011;27609;51.002;5.354;2024-01-15T07:15:56;27.92;;;12.82;;
41921;SDS011;27609;51.002;5.354;2024-01-15T07:18:22;28.10;;;11.70;;
41921;SDS011;27609;51.002;5.354;2024-01-15T07:20:48;22.92;;;11.00;;
41921;SDS011;27609;51.002;5.354;2024-01-15T07:23:14;28.75;;;11.90;;
41921;SDS011;27609;51.002;5.354;2024-01-15T07:25:40;24.08;;;11.23;;
41921;SDS011;27609;51.002;5.354;2024-01-15T07:28:06;27.02;;;10.65;;
41921;SDS011;27609;51.002;5.354;2024-01-15T07:30:31;21.92;;;10.25;;
41921;SDS011;27609;51.002;5.354;2024-01-15T07:32:57;23.35;;;9.85;;
41921;SDS011;27609;51.002;5.354;2024-01-15T07:35:23;30.58;;;10.77;;
41921;SDS011;27609;51.002;5.354;2024-01-15T07:37:48;19.38;;;9.82;;
41921;SDS011;27609;51.002;5.354;2024-01-15T07:40:14;22.25;;;9.35;;
41921;SDS011;27609;51.002;5.354;2024-01-15T07:42:40;20.88;;;9.57;;
41921;SDS011;27609;51.002;5.354;2024-01-15T07:45:07;16.80;;;8.27;;
41921;SDS011;27609;51.002;5.354;2024-01-15T07:47:34;17.08;;;8.88;;
41921;SDS011;27609;51.002;5.354;2024-01-15T07:50:00;19.40;;;8.27;;
41921;SDS011;27609;51.002;5.354;2024-01-15T07:52:26;21.42;;;8.43;;
41921;SDS011;27609;51.002;5.354;2024-01-15T07:54:51;19.40;;;7.03;;
41921;SDS011;27609;51.002;5.354;2024-01-15T07:57:17;17.52;;;7.00;;
41921;SDS011;27609;51.002;5.354;2024-01-15T07:59:43;15.43;;;7.60;;
41921;SDS011;27609;51.002;5.354;2024-01-15T08:02:09;17.15;;;6.53;;
41921;SDS011;27609;51.002;5.354;2024-01-15T08:04:36;11.68;;;7.15;;
41921;SDS011;27609;51.002;5.354;2024-01-15T08:07:03;19.98;;;7.32;;
41921;SDS011;27609;51.002;5.354;2024-01-15T08:09:29;15.02;;;6.90;;
41921;SDS011;27609;51.002;5.354;2024-01-15T08:11:55;13.90;;;6.28;;
41921;SDS011;27609;51.002;5.354;2024-01-15T08:14:21;10.45;;;5.78;;
41921;SDS011;27609;51.002;5.354;2024-01-15T08:16:46;11.73;;;6.28;;
41921;SDS011;27609;51.002;5.354;2024-01-15T08:19:12;10.43;;;5.70;;
41921;SDS011;27609;51.002;5.354;2024-01-15T08:21:39;10.23;;;4.70;;
41921;SDS011;27609;51.002;5.354;2024-01-15T08:24:05;15.25;;;5.85;;
41921;SDS011;27609;51.002;5.354;2024-01-15T08:26:31;9.45;;;4.75;;
41921;SDS011;27609;51.002;5.354;2024-01-15T08:28:57;8.93;;;4.47;;
41921;SDS011;27609;51.002;5.354;2024-01-15T08:31:23;8.48;;;3.80;;
41921;SDS011;27609;51.002;5.354;2024-01-15T08:33:49;6.80;;;3.70;;
41921;SDS011;27609;51.002;5.354;2024-01-15T08:36:15;7.07;;;4.43;;
41921;SDS011;27609;51.002;5.354;2024-01-15T08:38:41;5.47;;;4.15;;
41921;SDS011;27609;51.002;5.354;2024-01-15T08:41:06;9.10;;;4.47;;
41921;SDS011;27609;51.002;5.354;2024-01-15T08:43:33;7.85;;;5.20;;
41921;SDS011;27609;51.002;5.354;2024-01-15T08:45:59;13.13;;;4.53;;
41921;SDS011;27609;51.002;5.354;2024-01-15T08:48:25;13.88;;;6.25;;
41921;SDS011;27609;51.002;5.354;2024-01-15T08:50:52;16.27;;;6.20;;
41921;SDS011;27609;51.002;5.354;2024-01-15T08:53:19;16.30;;;7.13;;
41921;SDS011;27609;51.002;5.354;2024-01-15T08:55:45;18.23;;;8.18;;
41921;SDS011;27609;51.002;5.354;2024-01-15T08:58:11;18.48;;;8.50;;
41921;SDS011;27609;51.002;5.354;2024-01-15T09:00:37;16.80;;;5.88;;
41921;SDS011;27609;51.002;5.354;2024-01-15T09:03:03;11.93;;;6.43;;
41921;SDS011;27609;51.002;5.354;2024-01-15T09:05:29;10.43;;;5.65;;
41921;SDS011;27609;51.002;5.354;2024-01-15T09:07:55;15.02;;;5.30;;
41921;SDS011;27609;51.002;5.354;2024-01-15T09:10:21;7.88;;;5.20;;
41921;SDS011;27609;51.002;5.354;2024-01-15T09:12:46;9.18;;;4.63;;
41921;SDS011;27609;51.002;5.354;2024-01-15T09:15:14;17.17;;;5.30;;
41921;SDS011;27609;51.002;5.354;2024-01-15T09:17:39;14.43;;;5.40;;
41921;SDS011;27609;51.002;5.354;2024-01-15T09:20:05;12.10;;;4.05;;
41921;SDS011;27609;51.002;5.354;2024-01-15T09:22:32;8.82;;;4.00;;
41921;SDS011;27609;51.002;5.354;2024-01-15T09:24:58;17.38;;;5.45;;
41921;SDS011;27609;51.002;5.354;2024-01-15T09:27:24;5.97;;;3.78;;
41921;SDS011;27609;51.002;5.354;2024-01-15T09:29:53;13.82;;;4.57;;
41921;SDS011;27609;51.002;5.354;2024-01-15T09:32:18;9.05;;;4.28;;
41921;SDS011;27609;51.002;5.354;2024-01-15T09:34:45;11.02;;;3.85;;
41921;SDS011;27609;51.002;5.354;2024-01-15T09:37:11;16.98;;;4.80;;
41921;SDS011;27609;51.002;5.354;2024-01-15T09:39:39;11.30;;;3.20;;
41921;SDS011;27609;51.002;5.354;2024-01-15T09:42:05;7.82;;;3.38;;
41921;SDS011;27609;51.002;5.354;2024-01-15T09:44:31;8.32;;;3.67;;
41921;SDS011;27609;51.002;5.354;2024-01-15T09:46:57;8.32;;;3.42;;
41921;SDS011;27609;51.002;5.354;2024-01-15T09:49:23;12.95;;;3.42;;
41921;SDS011;27609;51.002;5.354;2024-01-15T09:51:49;8.70;;;3.35;;
41921;SDS011;27609;51.002;5.354;2024-01-15T09:54:16;12.98;;;3.33;;
41921;SDS011;27609;51.002;5.354;2024-01-15T09:56:45;10.40;;;4.25;;
41921;SDS011;27609;51.002;5.354;2024-01-15T09:59:13;13.85;;;6.43;;
41921;SDS011;27609;51.002;5.354;2024-01-15T10:01:41;10.65;;;3.63;;
41921;SDS011;27609;51.002;5.354;2024-01-15T10:04:09;6.03;;;2.78;;
41921;SDS011;27609;51.002;5.354;2024-01-15T10:06:38;5.68;;;2.40;;
41921;SDS011;27609;51.002;5.354;2024-01-15T10:09:04;8.45;;;2.88;;
41921;SDS011;27609;51.002;5.354;2024-01-15T10:11:32;8.43;;;3.10;;
41921;SDS011;27609;51.002;5.354;2024-01-15T10:13:58;12.27;;;3.22;;
41921;SDS011;27609;51.002;5.354;2024-01-15T10:16:24;11.00;;;2.90;;
41921;SDS011;27609;51.002;5.354;2024-01-15T10:18:51;10.55;;;2.35;;
41921;SDS011;27609;51.002;5.354;2024-01-15T10:21:17;4.45;;;2.42;;
41921;SDS011;27609;51.002;5.354;2024-01-15T10:23:42;8.18;;;2.95;;
41921;SDS011;27609;51.002;5.354;2024-01-15T10:26:09;14.30;;;3.53;;
41921;SDS011;27609;51.002;5.354;2024-01-15T10:28:36;9.38;;;2.22;;
41921;SDS011;27609;51.002;5.354;2024-01-15T10:31:02;14.80;;;2.90;;
41921;SDS011;27609;51.002;5.354;2024-01-15T10:33:29;9.27;;;2.75;;
41921;SDS011;27609;51.002;5.354;2024-01-15T10:35:56;7.03;;;2.08;;
41921;SDS011;27609;51.002;5.354;2024-01-15T10:38:22;8.18;;;2.03;;
41921;SDS011;27609;51.002;5.354;2024-01-15T10:40:53;5.60;;;2.17;;
41921;SDS011;27609;51.002;5.354;2024-01-15T10:43:19;11.40;;;3.10;;
41921;SDS011;27609;51.002;5.354;2024-01-15T10:45:46;7.47;;;2.75;;
41921;SDS011;27609;51.002;5.354;2024-01-15T10:48:13;8.00;;;1.88;;
41921;SDS011;27609;51.002;5.354;2024-01-15T10:50:39;7.05;;;1.70;;
41921;SDS011;27609;51.002;5.354;2024-01-15T10:53:05;3.97;;;1.70;;
41921;SDS011;27609;51.002;5.354;2024-01-15T10:55:33;7.22;;;1.88;;
41921;SDS011;27609;51.002;5.354;2024-01-15T10:58:02;6.47;;;1.83;;
41921;SDS011;27609;51.002;5.354;2024-01-15T11:00:28;9.85;;;1.92;;
41921;SDS011;27609;51.002;5.354;2024-01-15T11:02:55;6.85;;;1.67;;
41921;SDS011;27609;51.002;5.354;2024-01-15T11:05:22;6.45;;;1.70;;
41921;SDS011;27609;51.002;5.354;2024-01-15T11:07:48;7.55;;;2.13;;
41921;SDS011;27609;51.002;5.354;2024-01-15T11:11:00;6.95;;;2.38;;
41921;SDS011;27609;51.002;5.354;2024-01-15T11:13:03;6.10;;;2.47;;
41921;SDS011;27609;51.002;5.354;2024-01-15T11:15:30;8.27;;;1.63;;
41921;SDS011;27609;51.002;5.354;2024-01-15T11:17:59;9.27;;;2.30;;
41921;SDS011;27609;51.002;5.354;2024-01-15T11:20:26;8.25;;;1.70;;
41921;SDS011;27609;51.002;5.354;2024-01-15T11:22:52;5.43;;;1.80;;
41921;SDS011;27609;51.002;5.354;2024-01-15T11:25:18;9.30;;;1.70;;
41921;SDS011;27609;51.002;5.354;2024-01-15T11:27:46;9.43;;;2.40;;
41921;SDS011;27609;51.002;5.354;2024-01-15T11:30:13;5.45;;;2.35;;
41921;SDS011;27609;51.002;5.354;2024-01-15T11:32:39;5.22;;;1.80;;
41921;SDS011;27609;51.002;5.354;2024-01-15T11:35:08;7.50;;;1.88;;
41921;SDS011;27609;51.002;5.354;2024-01-15T11:40:19;9.52;;;2.63;;
41921;SDS011;27609;51.002;5.354;2024-01-15T11:42:46;6.47;;;2.65;;
41921;SDS011;27609;51.002;5.354;2024-01-15T11:45:19;3.33;;;1.95;;
41921;SDS011;27609;51.002;5.354;2024-01-15T11:50:41;12.18;;;2.60;;
41921;SDS011;27609;51.002;5.354;2024-01-15T11:56:03;10.40;;;3.13;;
41921;SDS011;27609;51.002;5.354;2024-01-15T11:58:36;5.95;;;3.17;;
41921;SDS011;27609;51.002;5.354;2024-01-15T12:01:02;4.95;;;3.00;;
41921;SDS011;27609;51.002;5.354;2024-01-15T12:03:28;5.18;;;3.20;;
41921;SDS011;27609;51.002;5.354;2024-01-15T12:05:58;3.08;;;2.60;;
41921;SDS011;27609;51.002;5.354;2024-01-15T12:08:25;4.60;;;2.67;;
41921;SDS011;27609;51.002;5.354;2024-01-15T12:10:52;3.72;;;2.78;;
41921;SDS011;27609;51.002;5.354;2024-01-15T12:13:18;4.70;;;2.60;;
41921;SDS011;27609;51.002;5.354;2024-01-15T12:15:45;3.83;;;3.05;;
41921;SDS011;27609;51.002;5.354;2024-01-15T12:18:12;5.15;;;2.97;;
41921;SDS011;27609;51.002;5.354;2024-01-15T12:20:39;5.13;;;2.50;;
41921;SDS011;27609;51.002;5.354;2024-01-15T12:23:05;5.38;;;2.70;;
41921;SDS011;27609;51.002;5.354;2024-01-15T12:25:31;3.72;;;2.88;;
41921;SDS011;27609;51.002;5.354;2024-01-15T12:27:58;4.38;;;2.67;;
41921;SDS011;27609;51.002;5.354;2024-01-15T12:30:28;5.10;;;2.90;;
41921;SDS011;27609;51.002;5.354;2024-01-15T12:32:58;4.57;;;2.92;;
41921;SDS011;27609;51.002;5.354;2024-01-15T12:35:26;5.03;;;3.50;;
41921;SDS011;27609;51.002;5.354;2024-01-15T12:37:52;3.67;;;3.35;;
41921;SDS011;27609;51.002;5.354;2024-01-15T12:40:20;8.48;;;3.88;;
41921;SDS011;27609;51.002;5.354;2024-01-15T12:42:48;5.32;;;3.85;;
41921;SDS011;27609;51.002;5.354;2024-01-15T12:45:14;5.97;;;3.53;;
41921;SDS011;27609;51.002;5.354;2024-01-15T12:47:41;5.82;;;2.65;;
41921;SDS011;27609;51.002;5.354;2024-01-15T12:50:08;5.88;;;2.15;;
41921;SDS011;27609;51.002;5.354;2024-01-15T12:52:35;2.85;;;1.48;;
41921;SDS011;27609;51.002;5.354;2024-01-15T12:55:03;7.53;;;2.42;;
41921;SDS011;27609;51.002;5.354;2024-01-15T12:57:32;7.07;;;2.05;;
41921;SDS011;27609;51.002;5.354;2024-01-15T12:59:59;3.35;;;1.30;;
41921;SDS011;27609;51.002;5.354;2024-01-15T13:02:25;5.60;;;1.63;;
41921;SDS011;27609;51.002;5.354;2024-01-15T13:04:51;5.38;;;1.27;;
41921;SDS011;27609;51.002;5.354;2024-01-15T13:07:17;3.35;;;1.73;;
41921;SDS011;27609;51.002;5.354;2024-01-15T13:09:43;4.55;;;1.65;;
41921;SDS011;27609;51.002;5.354;2024-01-15T13:12:08;4.57;;;1.65;;
41921;SDS011;27609;51.002;5.354;2024-01-15T13:14:34;4.20;;;1.80;;
41921;SDS011;27609;51.002;5.354;2024-01-15T13:17:01;10.00;;;2.30;;
41921;SDS011;27609;51.002;5.354;2024-01-15T13:19:28;2.13;;;1.92;;
41921;SDS011;27609;51.002;5.354;2024-01-15T13:21:54;6.60;;;2.13;;
41921;SDS011;27609;51.002;5.354;2024-01-15T13:24:21;3.83;;;1.52;;
41921;SDS011;27609;51.002;5.354;2024-01-15T13:26:47;1.88;;;1.58;;
41921;SDS011;27609;51.002;5.354;2024-01-15T13:29:13;3.25;;;1.40;;
41921;SDS011;27609;51.002;5.354;2024-01-15T13:31:40;5.38;;;1.58;;
41921;SDS011;27609;51.002;5.354;2024-01-15T13:34:06;3.90;;;1.58;;
41921;SDS011;27609;51.002;5.354;2024-01-15T13:36:32;2.60;;;1.50;;
41921;SDS011;27609;51.002;5.354;2024-01-15T13:38:58;2.50;;;1.38;;
41921;SDS011;27609;51.002;5.354;2024-01-15T13:41:24;2.95;;;1.48;;
41921;SDS011;27609;51.002;5.354;2024-01-15T13:43:52;3.08;;;1.17;;
41921;SDS011;27609;51.002;5.354;2024-01-15T13:46:19;1.73;;;0.95;;
41921;SDS011;27609;51.002;5.354;2024-01-15T13:48:47;4.32;;;1.20;;
41921;SDS011;27609;51.002;5.354;2024-01-15T13:51:12;1.02;;;0.98;;
41921;SDS011;27609;51.002;5.354;2024-01-15T13:53:38;3.03;;;1.30;;
41921;SDS011;27609;51.002;5.354;2024-01-15T13:56:05;2.08;;;1.02;;
41921;SDS011;27609;51.002;5.354;2024-01-15T13:58:31;3.60;;;1.40;;
41921;SDS011;27609;51.002;5.354;2024-01-15T14:01:00;2.25;;;1.15;;
41921;SDS011;27609;51.002;5.354;2024-01-15T14:03:27;3.95;;;1.27;;
41921;SDS011;27609;51.002;5.354;2024-01-15T14:05:53;3.00;;;1.05;;
41921;SDS011;27609;51.002;5.354;2024-01-15T14:08:19;5.65;;;1.30;;
41921;SDS011;27609;51.002;5.354;2024-01-15T14:10:45;1.65;;;1.35;;
41921;SDS011;27609;51.002;5.354;2024-01-15T14:13:11;2.22;;;1.58;;
41921;SDS011;27609;51.002;5.354;2024-01-15T14:15:36;2.42;;;2.20;;
41921;SDS011;27609;51.002;5.354;2024-01-15T14:18:02;4.30;;;1.52;;
41921;SDS011;27609;51.002;5.354;2024-01-15T14:20:28;6.20;;;1.92;;
41921;SDS011;27609;51.002;5.354;2024-01-15T14:22:54;3.38;;;1.23;;
41921;SDS011;27609;51.002;5.354;2024-01-15T14:25:20;3.63;;;1.58;;
41921;SDS011;27609;51.002;5.354;2024-01-15T14:27:46;1.30;;;1.20;;
41921;SDS011;27609;51.002;5.354;2024-01-15T14:30:13;7.75;;;1.55;;
41921;SDS011;27609;51.002;5.354;2024-01-15T14:32:40;3.90;;;1.25;;
41921;SDS011;27609;51.002;5.354;2024-01-15T14:35:07;2.33;;;1.30;;
41921;SDS011;27609;51.002;5.354;2024-01-15T14:37:35;2.10;;;1.58;;